Time,TemperatureF,DewpointF,PressureIn,WindDirection,WindDirectionDegrees,WindSpeedMPH,WindSpeedGustMPH,Humidity,HourlyPrecipIn,Conditions,Clouds,dailyrainin,SoftwareType,DateUTC
2013-01-27 00:00:00,30.4,27.3,29.57,WSW,246,0.0,0.0,88,0.00,,,0.00,Wunderground v.1.15,2013-01-27 07:00:00,
2013-01-27 00:15:00,30.4,27.3,29.56,WSW,246,0.0,0.0,88,0.00,,,0.00,Wunderground v.1.15,2013-01-27 07:15:00,
2013-01-27 00:25:00,30.7,27.8,29.56,WSW,246,0.0,0.0,89,0.00,,,0.00,Wunderground v.1.15,2013-01-27 07:25:00,
2013-01-27 00:30:00,30.7,27.8,29.51,WSW,246,0.0,0.0,89,0.00,,,0.00,Wunderground v.1.15,2013-01-27 07:30:00,
2013-01-27 00:40:00,30.9,28.0,29.51,WSW,246,0.0,0.0,89,0.00,,,0.00,Wunderground v.1.15,2013-01-27 07:40:00,
2013-01-27 06:55:00,38.9,22.8,29.53,WNW,298,3.0,3.0,52,0.00,,,0.00,Wunderground v.1.15,2013-01-27 13:55:00,
2013-01-27 07:00:00,38.9,22.8,29.53,ESE,106,3.0,3.0,52,0.00,,,0.00,Wunderground v.1.15,2013-01-27 14:00:00,
2013-01-27 07:10:00,38.9,22.3,29.53,NW,319,3.0,6.0,51,0.00,,,0.00,Wunderground v.1.15,2013-01-27 14:10:00,
2013-01-27 07:15:00,38.9,22.3,29.53,South,179,4.0,6.0,51,0.00,,,0.00,Wunderground v.1.15,2013-01-27 14:15:00,
2013-01-27 07:25:00,38.9,22.8,29.53,West,272,4.0,8.0,52,0.00,,,0.00,Wunderground v.1.15,2013-01-27 14:25:00,
2013-01-27 07:30:00,38.9,23.2,29.58,South,174,4.0,4.0,53,0.00,,,0.00,Wunderground v.1.15,2013-01-27 14:30:00,
2013-01-27 07:40:00,38.9,22.3,29.58,SSW,209,2.0,2.0,51,0.00,,,0.00,Wunderground v.1.15,2013-01-27 14:40:00,
2013-01-27 07:45:00,38.9,22.3,29.58,SSW,195,1.0,2.0,51,0.00,,,0.00,Wunderground v.1.15,2013-01-27 14:45:00,
2013-01-27 07:55:00,39.1,22.5,29.58,SSW,195,3.0,3.0,51,0.00,,,0.00,Wunderground v.1.15,2013-01-27 14:55:00,
2013-01-27 08:00:00,39.1,22.9,29.58,SW,216,1.0,2.0,52,0.00,,,0.00,Wunderground v.1.15,2013-01-27 15:00:00,
2013-01-27 08:10:00,38.9,23.2,29.58,SSW,193,3.0,3.0,53,0.00,,,0.00,Wunderground v.1.15,2013-01-27 15:10:00,
2013-01-27 08:16:00,38.9,23.2,29.58,SSW,193,2.0,6.0,53,0.00,,,0.00,Wunderground v.1.15,2013-01-27 15:16:00,
2013-01-27 08:25:00,38.8,23.1,29.58,South,185,2.0,2.0,53,0.00,,,0.00,Wunderground v.1.15,2013-01-27 15:25:00,
2013-01-27 08:30:00,38.9,23.2,29.60,SSW,212,2.0,2.0,53,0.00,,,0.00,Wunderground v.1.15,2013-01-27 15:30:00,
2013-01-27 08:40:00,39.2,23.0,29.60,West,270,3.0,3.0,52,0.00,,,0.00,Wunderground v.1.15,2013-01-27 15:40:00,
2013-01-27 08:45:00,39.3,23.1,29.60,West,260,3.0,3.0,52,0.00,,,0.00,Wunderground v.1.15,2013-01-27 15:45:00,
2013-01-27 08:55:00,39.5,22.8,29.60,SSW,206,3.0,3.0,51,0.00,,,0.00,Wunderground v.1.15,2013-01-27 15:55:00,
2013-01-27 09:00:00,39.6,22.5,29.60,South,172,3.0,3.0,50,0.00,,,0.00,Wunderground v.1.15,2013-01-27 16:00:00,
2013-01-27 09:10:00,39.6,22.9,29.60,SSW,198,3.0,3.0,51,0.00,,,0.00,Wunderground v.1.15,2013-01-27 16:10:00,
2013-01-27 09:15:00,39.6,22.9,29.60,SSW,206,4.0,4.0,51,0.00,,,0.00,Wunderground v.1.15,2013-01-27 16:15:00,
2013-01-27 09:25:00,39.8,22.7,29.60,WNW,289,4.0,12.0,50,0.00,,,0.00,Wunderground v.1.15,2013-01-27 16:25:00,
2013-01-27 09:30:00,39.8,22.7,29.61,SSW,210,6.0,6.0,50,0.00,,,0.00,Wunderground v.1.15,2013-01-27 16:30:00,
2013-01-27 09:40:00,40.1,23.4,29.61,West,280,6.0,7.0,51,0.00,,,0.00,Wunderground v.1.15,2013-01-27 16:40:00,
2013-01-27 09:45:00,40.1,22.9,29.62,SSW,195,5.0,7.0,50,0.00,,,0.00,Wunderground v.1.15,2013-01-27 16:45:00,
2013-01-27 09:55:00,40.3,22.1,29.62,SSW,206,7.0,7.0,48,0.00,,,0.00,Wunderground v.1.15,2013-01-27 16:55:00,
2013-01-27 10:00:00,40.3,21.6,29.62,ENE,69,6.0,6.0,47,0.00,,,0.00,Wunderground v.1.15,2013-01-27 17:00:00,
2013-01-27 10:10:00,40.6,22.4,29.62,West,263,7.0,7.0,48,0.00,,,0.00,Wunderground v.1.15,2013-01-27 17:10:00,
2013-01-27 10:15:00,40.8,22.1,29.62,North,356,6.0,7.0,47,0.00,,,0.00,Wunderground v.1.15,2013-01-27 17:15:00,
2013-01-27 10:25:00,40.9,22.2,29.62,West,275,7.0,10.0,47,0.00,,,0.00,Wunderground v.1.15,2013-01-27 17:25:00,
2013-01-27 10:30:00,40.9,22.2,29.62,South,189,7.0,10.0,47,0.00,,,0.00,Wunderground v.1.15,2013-01-27 17:30:00,
2013-01-27 10:40:00,41.3,22.1,29.62,WNW,291,6.0,7.0,46,0.00,,,0.00,Wunderground v.1.15,2013-01-27 17:40:00,
2013-01-27 10:45:00,41.2,22.0,29.62,SSW,210,7.0,7.0,46,0.00,,,0.00,Wunderground v.1.15,2013-01-27 17:45:00,
2013-01-27 10:55:00,42.1,21.7,29.62,NW,311,4.0,5.0,44,0.00,,,0.00,Wunderground v.1.15,2013-01-27 17:55:00,
2013-01-27 11:00:00,42.2,21.8,29.62,NNW,337,5.0,12.0,44,0.00,,,0.00,Wunderground v.1.15,2013-01-27 18:00:00,
2013-01-27 11:10:00,42.6,22.2,29.62,South,172,6.0,6.0,44,0.00,,,0.00,Wunderground v.1.15,2013-01-27 18:10:00,
2013-01-27 11:15:00,42.6,22.2,29.60,West,281,4.0,11.0,44,0.00,,,0.00,Wunderground v.1.15,2013-01-27 18:15:00,
2013-01-27 11:25:00,42.8,21.3,29.60,NW,318,4.0,7.0,42,0.00,,,0.00,Wunderground v.1.15,2013-01-27 18:25:00,
2013-01-27 11:30:00,42.8,20.7,29.61,West,274,6.0,7.0,41,0.00,,,0.00,Wunderground v.1.15,2013-01-27 18:30:00,
2013-01-27 11:40:00,42.8,20.7,29.61,SSW,196,6.0,7.0,41,0.00,,,0.00,Wunderground v.1.15,2013-01-27 18:40:00,
2013-01-27 11:45:00,42.6,21.1,29.61,WNW,288,4.0,7.0,42,0.00,,,0.00,Wunderground v.1.15,2013-01-27 18:45:00,
2013-01-27 11:55:00,42.8,20.1,29.61,South,189,5.0,8.0,40,0.00,,,0.00,Wunderground v.1.15,2013-01-27 18:55:00,
2013-01-27 12:00:00,43.3,20.6,29.62,NW,323,4.0,8.0,40,0.00,,,0.00,Wunderground v.1.15,2013-01-27 19:00:00,
2013-01-27 12:10:00,43.3,20.0,29.62,WNW,295,6.0,7.0,39,0.00,,,0.00,Wunderground v.1.15,2013-01-27 19:10:00,
2013-01-27 12:15:00,43.6,19.0,29.59,WNW,299,5.0,7.0,37,0.00,,,0.00,Wunderground v.1.15,2013-01-27 19:15:00,
2013-01-27 12:25:00,43.2,18.6,29.59,NW,316,6.0,6.0,37,0.00,,,0.00,Wunderground v.1.15,2013-01-27 19:25:00,
2013-01-27 12:30:00,42.9,18.4,29.59,SSW,208,6.0,6.0,37,0.00,,,0.00,Wunderground v.1.15,2013-01-27 19:30:00,
2013-01-27 12:40:00,42.5,18.0,29.59,NW,306,7.0,18.0,37,0.00,,,0.00,Wunderground v.1.15,2013-01-27 19:40:00,
2013-01-27 12:45:00,42.8,18.3,29.58,SSW,200,8.0,18.0,37,0.00,,,0.00,Wunderground v.1.15,2013-01-27 19:45:00,
2013-01-27 12:55:00,43.2,18.6,29.58,West,274,6.0,8.0,37,0.00,,,0.00,Wunderground v.1.15,2013-01-27 19:55:00,
2013-01-27 13:00:00,43.3,18.1,29.58,WNW,296,5.0,8.0,36,0.00,,,0.00,Wunderground v.1.15,2013-01-27 20:00:00,
2013-01-27 13:10:00,43.3,17.4,29.58,West,281,7.0,14.0,35,0.00,,,0.00,Wunderground v.1.15,2013-01-27 20:10:00,
2013-01-27 13:15:00,43.1,17.3,29.58,NW,311,9.0,14.0,35,0.00,,,0.00,Wunderground v.1.15,2013-01-27 20:15:00,
2013-01-27 13:25:00,42.9,15.7,29.58,WNW,292,8.0,28.0,33,0.00,,,0.00,Wunderground v.1.15,2013-01-27 20:25:00,
2013-01-27 13:30:00,42.9,17.1,29.60,West,281,5.0,20.0,35,0.00,,,0.00,Wunderground v.1.15,2013-01-27 20:30:00,
2013-01-27 13:40:00,43.1,17.3,29.60,NE,34,6.0,6.0,35,0.00,,,0.00,Wunderground v.1.15,2013-01-27 20:40:00,
2013-01-27 13:45:00,43.3,16.1,29.59,NNW,333,7.0,7.0,33,0.00,,,0.00,Wunderground v.1.15,2013-01-27 20:45:00,
2013-01-27 13:55:00,43.3,16.1,29.59,NW,306,8.0,16.0,33,0.00,,,0.00,Wunderground v.1.15,2013-01-27 20:55:00,
2013-01-27 14:00:00,43.5,14.8,29.60,NE,52,10.0,10.0,31,0.00,,,0.00,Wunderground v.1.15,2013-01-27 21:00:00,
2013-01-27 14:10:00,43.6,14.2,29.60,West,277,8.0,8.0,30,0.00,,,0.00,Wunderground v.1.15,2013-01-27 21:10:00,
2013-01-27 14:15:00,43.6,14.9,29.59,WNW,302,8.0,8.0,31,0.00,,,0.00,Wunderground v.1.15,2013-01-27 21:15:00,
2013-01-27 14:25:00,43.9,14.4,29.59,WNW,287,5.0,28.0,30,0.00,,,0.00,Wunderground v.1.15,2013-01-27 21:25:00,
2013-01-27 14:30:00,43.6,14.2,29.60,NW,309,7.0,22.0,30,0.00,,,0.00,Wunderground v.1.15,2013-01-27 21:30:00,
2013-01-27 14:40:00,43.8,14.3,29.60,SW,219,7.0,13.0,30,0.00,,,0.00,Wunderground v.1.15,2013-01-27 21:40:00,
2013-01-27 14:45:00,43.6,14.2,29.60,WNW,295,8.0,18.0,30,0.00,,,0.00,Wunderground v.1.15,2013-01-27 21:45:00,
2013-01-27 14:55:00,43.2,14.6,29.60,South,172,6.0,11.0,31,0.00,,,0.00,Wunderground v.1.15,2013-01-27 21:55:00,
2013-01-27 15:00:00,42.9,15.0,29.60,South,174,4.0,4.0,32,0.00,,,0.00,Wunderground v.1.15,2013-01-27 22:00:00,
2013-01-27 15:10:00,42.5,16.7,29.60,West,274,5.0,5.0,35,0.00,,,0.00,Wunderground v.1.15,2013-01-27 22:10:00,
2013-01-27 15:15:00,42.3,16.6,29.61,NNE,21,6.0,18.0,35,0.00,,,0.00,Wunderground v.1.15,2013-01-27 22:15:00,
2013-01-27 15:25:00,42.3,15.9,29.61,WNW,301,3.0,6.0,34,0.00,,,0.00,Wunderground v.1.15,2013-01-27 22:25:00,
2013-01-27 15:30:00,42.3,16.6,29.62,WNW,298,1.0,1.0,35,0.00,,,0.00,Wunderground v.1.15,2013-01-27 22:30:00,
2013-01-27 15:40:00,42.2,17.1,29.62,South,191,4.0,4.0,36,0.00,,,0.00,Wunderground v.1.15,2013-01-27 22:40:00,
2013-01-27 15:45:00,42.1,17.0,29.62,West,278,4.0,5.0,36,0.00,,,0.00,Wunderground v.1.15,2013-01-27 22:45:00,
2013-01-27 15:55:00,41.8,17.4,29.62,WNW,294,3.0,13.0,37,0.00,,,0.00,Wunderground v.1.15,2013-01-27 22:55:00,
2013-01-27 16:00:00,41.8,17.4,29.62,West,263,2.0,2.0,37,0.00,,,0.00,Wunderground v.1.15,2013-01-27 23:00:00,
2013-01-27 16:10:00,41.3,16.9,29.62,WSW,253,1.0,2.0,37,0.00,,,0.00,Wunderground v.1.15,2013-01-27 23:10:00,
2013-01-27 16:15:00,41.2,17.5,29.64,WNW,296,2.0,7.0,38,0.00,,,0.00,Wunderground v.1.15,2013-01-27 23:15:00,
2013-01-27 16:25:00,41.1,17.4,29.64,WNW,284,2.0,3.0,38,0.00,,,0.00,Wunderground v.1.15,2013-01-27 23:25:00,
2013-01-27 16:30:00,40.9,17.2,29.54,West,275,2.0,2.0,38,0.00,,,0.00,Wunderground v.1.15,2013-01-27 23:30:00,
2013-01-27 16:40:00,40.8,17.1,29.54,SSE,161,1.0,1.0,38,0.00,,,0.00,Wunderground v.1.15,2013-01-27 23:40:00,
2013-01-27 16:45:00,40.8,15.9,29.54,WNW,294,1.0,1.0,36,0.00,,,0.00,Wunderground v.1.15,2013-01-27 23:45:00,
2013-01-27 16:55:00,40.8,17.1,29.54,WNW,295,1.0,6.0,38,0.00,,,0.00,Wunderground v.1.15,2013-01-27 23:55:00,
2013-01-27 17:00:00,40.8,16.5,29.55,WNW,287,1.0,2.0,37,0.00,,,0.00,Wunderground v.1.15,2013-01-28 00:00:00,
2013-01-27 17:10:00,40.5,16.9,29.55,NW,306,1.0,4.0,38,0.00,,,0.00,Wunderground v.1.15,2013-01-28 00:10:00,
2013-01-27 17:15:00,40.3,16.7,29.55,West,260,1.0,4.0,38,0.00,,,0.00,Wunderground v.1.15,2013-01-28 00:15:00,
2013-01-27 17:25:00,40.1,17.1,29.55,WNW,288,1.0,4.0,39,0.00,,,0.00,Wunderground v.1.15,2013-01-28 00:25:00,
2013-01-27 17:30:00,40.1,17.1,29.57,ENE,58,1.0,1.0,39,0.00,,,0.00,Wunderground v.1.15,2013-01-28 00:30:00,
2013-01-27 17:40:00,39.9,16.9,29.57,SW,217,1.0,1.0,39,0.00,,,0.00,Wunderground v.1.15,2013-01-28 00:40:00,
2013-01-27 17:45:00,39.8,17.4,29.58,West,272,1.0,1.0,40,0.00,,,0.00,Wunderground v.1.15,2013-01-28 00:45:00,
2013-01-27 17:55:00,39.6,17.2,29.58,WNW,302,1.0,2.0,40,0.00,,,0.00,Wunderground v.1.15,2013-01-28 00:55:00,
2013-01-27 18:00:00,39.6,17.2,29.59,WNW,292,1.0,2.0,40,0.00,,,0.00,Wunderground v.1.15,2013-01-28 01:00:00,
2013-01-27 18:10:00,39.8,17.4,29.59,West,281,2.0,10.0,40,0.00,,,0.00,Wunderground v.1.15,2013-01-28 01:10:00,
2013-01-27 18:15:00,39.9,17.5,29.59,West,280,3.0,10.0,40,0.00,,,0.00,Wunderground v.1.15,2013-01-28 01:15:00,
2013-01-27 18:25:00,39.8,17.4,29.59,NW,309,2.0,5.0,40,0.00,,,0.00,Wunderground v.1.15,2013-01-28 01:25:00,
2013-01-27 18:30:00,39.6,17.2,29.59,SSW,199,2.0,5.0,40,0.00,,,0.00,Wunderground v.1.15,2013-01-28 01:30:00,
2013-01-27 18:40:00,39.5,16.6,29.59,NW,311,2.0,2.0,39,0.00,,,0.00,Wunderground v.1.15,2013-01-28 01:40:00,
2013-01-27 18:45:00,39.5,16.0,29.60,NW,305,2.0,4.0,38,0.00,,,0.00,Wunderground v.1.15,2013-01-28 01:45:00,
2013-01-27 18:55:00,39.5,16.0,29.60,NW,305,3.0,11.0,38,0.00,,,0.00,Wunderground v.1.15,2013-01-28 01:55:00,
2013-01-27 19:00:00,39.3,15.8,29.60,West,281,3.0,3.0,38,0.00,,,0.00,Wunderground v.1.15,2013-01-28 02:00:00,
2013-01-27 19:10:00,39.1,15.6,29.60,WNW,298,2.0,2.0,38,0.00,,,0.00,Wunderground v.1.15,2013-01-28 02:10:00,
2013-01-27 19:15:00,38.9,15.4,29.60,ENE,59,1.0,2.0,38,0.00,,,0.00,Wunderground v.1.15,2013-01-28 02:15:00,
2013-01-27 19:25:00,38.6,15.1,29.60,SSW,202,0.0,1.0,38,0.00,,,0.00,Wunderground v.1.15,2013-01-28 02:25:00,
2013-01-27 19:30:00,38.5,15.1,29.60,West,264,1.0,1.0,38,0.00,,,0.00,Wunderground v.1.15,2013-01-28 02:30:00,
2013-01-27 19:40:00,38.6,15.1,29.60,West,272,1.0,1.0,38,0.00,,,0.00,Wunderground v.1.15,2013-01-28 02:40:00,
2013-01-27 19:45:00,38.6,15.1,29.59,SSW,209,1.0,1.0,38,0.00,,,0.00,Wunderground v.1.15,2013-01-28 02:45:00,
2013-01-27 19:55:00,38.3,14.9,29.59,West,281,0.0,2.0,38,0.00,,,0.00,Wunderground v.1.15,2013-01-28 02:55:00,
2013-01-27 20:00:00,38.0,15.2,29.60,West,281,0.0,0.0,39,0.00,,,0.00,Wunderground v.1.15,2013-01-28 03:00:00,
2013-01-27 20:10:00,37.8,15.0,29.60,NW,325,1.0,1.0,39,0.00,,,0.00,Wunderground v.1.15,2013-01-28 03:10:00,
2013-01-27 20:15:00,37.8,15.0,29.60,NW,309,1.0,1.0,39,0.00,,,0.00,Wunderground v.1.15,2013-01-28 03:15:00,
2013-01-27 20:25:00,38.2,14.8,29.60,West,272,2.0,2.0,38,0.00,,,0.00,Wunderground v.1.15,2013-01-28 03:25:00,
2013-01-27 20:30:00,38.2,14.8,29.59,North,349,1.0,3.0,38,0.00,,,0.00,Wunderground v.1.15,2013-01-28 03:30:00,
2013-01-27 20:40:00,38.0,15.2,29.59,WNW,289,2.0,2.0,39,0.00,,,0.00,Wunderground v.1.15,2013-01-28 03:40:00,
2013-01-27 20:45:00,37.9,15.1,29.58,SSW,209,3.0,4.0,39,0.00,,,0.00,Wunderground v.1.15,2013-01-28 03:45:00,
2013-01-27 20:55:00,37.9,15.1,29.58,West,265,3.0,13.0,39,0.00,,,0.00,Wunderground v.1.15,2013-01-28 03:55:00,
2013-01-27 21:00:00,37.9,15.1,29.58,WNW,298,3.0,3.0,39,0.00,,,0.00,Wunderground v.1.15,2013-01-28 04:00:00,
2013-01-27 21:10:00,37.6,14.8,29.58,NW,320,3.0,9.0,39,0.00,,,0.00,Wunderground v.1.15,2013-01-28 04:10:00,
2013-01-27 21:15:00,37.6,14.8,29.57,WNW,285,5.0,9.0,39,0.00,,,0.00,Wunderground v.1.15,2013-01-28 04:15:00,
2013-01-27 21:25:00,37.5,14.2,29.57,West,264,5.0,8.0,38,0.00,,,0.00,Wunderground v.1.15,2013-01-28 04:25:00,
2013-01-27 21:35:00,37.2,14.5,29.56,West,274,2.0,2.0,39,0.00,,,0.00,Wunderground v.1.15,2013-01-28 04:35:00,
2013-01-27 21:40:00,37.0,14.3,29.56,WNW,301,1.0,2.0,39,0.00,,,0.00,Wunderground v.1.15,2013-01-28 04:40:00,
2013-01-27 21:45:00,36.6,14.5,29.56,SW,220,0.0,0.0,40,0.00,,,0.00,Wunderground v.1.15,2013-01-28 04:45:00,
2013-01-27 21:55:00,36.5,13.9,29.56,West,277,1.0,1.0,39,0.00,,,0.00,Wunderground v.1.15,2013-01-28 04:55:00,
2013-01-27 22:01:00,36.3,14.3,29.55,WSW,244,0.0,0.0,40,0.00,,,0.00,Wunderground v.1.15,2013-01-28 05:01:00,
2013-01-27 22:05:00,35.9,13.9,29.55,West,271,0.0,2.0,40,0.00,,,0.00,Wunderground v.1.15,2013-01-28 05:05:00,
2013-01-27 22:10:00,35.9,13.9,29.55,WNW,285,0.0,0.0,40,0.00,,,0.00,Wunderground v.1.15,2013-01-28 05:10:00,
2013-01-27 22:15:00,35.6,13.6,29.56,WNW,285,0.0,0.0,40,0.00,,,0.00,Wunderground v.1.15,2013-01-28 05:15:00,
2013-01-27 22:25:00,32.9,13.9,29.56,WNW,285,0.0,0.0,45,0.00,,,0.00,Wunderground v.1.15,2013-01-28 05:25:00,
2013-01-27 22:30:00,31.8,13.3,29.57,WNW,285,0.0,0.0,46,0.00,,,0.00,Wunderground v.1.15,2013-01-28 05:30:00,
2013-01-27 22:40:00,29.4,13.0,29.57,WNW,285,0.0,0.0,50,0.00,,,0.00,Wunderground v.1.15,2013-01-28 05:40:00,
2013-01-27 22:45:00,28.7,13.3,29.60,WNW,285,0.0,0.0,52,0.00,,,0.00,Wunderground v.1.15,2013-01-28 05:45:00,
2013-01-27 22:55:00,28.2,13.2,29.60,WSW,237,0.0,0.0,53,0.00,,,0.00,Wunderground v.1.15,2013-01-28 05:55:00,
2013-01-27 23:00:00,27.9,13.0,29.62,WSW,237,0.0,0.0,53,0.00,,,0.00,Wunderground v.1.15,2013-01-28 06:00:00,
2013-01-27 23:10:00,27.8,13.3,29.62,WSW,237,0.0,0.0,54,0.00,,,0.00,Wunderground v.1.15,2013-01-28 06:10:00,
2013-01-27 23:15:00,27.3,12.8,29.62,WSW,237,0.0,0.0,54,0.00,,,0.00,Wunderground v.1.15,2013-01-28 06:15:00,
2013-01-27 23:25:00,27.0,13.0,29.62,WSW,237,0.0,0.0,55,0.00,,,0.00,Wunderground v.1.15,2013-01-28 06:25:00,
2013-01-27 23:30:00,27.0,12.5,29.61,WSW,237,0.0,0.0,54,0.00,,,0.00,Wunderground v.1.15,2013-01-28 06:30:00,
2013-01-27 23:40:00,26.4,12.8,29.61,WSW,237,0.0,0.0,56,0.00,,,0.00,Wunderground v.1.15,2013-01-28 06:40:00,
2013-01-27 23:45:00,26.0,12.4,29.61,SSW,212,0.0,0.0,56,0.00,,,0.00,Wunderground v.1.15,2013-01-28 06:45:00,
2013-01-27 23:55:00,26.3,12.7,29.61,SSW,212,0.0,0.0,56,0.00,,,0.00,Wunderground v.1.15,2013-01-28 06:55:00,